createdAt,value
2023-08-28T00:01:30.704Z,48.17
2023-08-28T00:03:57.270Z,48.43
2023-08-28T00:06:23.770Z,48.30
2023-08-28T00:08:50.236Z,48.22
2023-08-28T00:11:16.734Z,48.42
2023-08-28T00:13:43.204Z,48.44
2023-08-28T00:16:09.712Z,48.42
2023-08-28T00:18:36.174Z,48.51
2023-08-28T00:21:04.052Z,48.25
2023-08-28T00:23:33.498Z,48.19
2023-08-28T00:26:03.278Z,48.30
2023-08-28T00:28:29.802Z,48.40
2023-08-28T00:30:56.296Z,48.36
2023-08-28T00:33:22.775Z,48.43
2023-08-28T00:35:50.674Z,48.34
2023-08-28T00:38:17.175Z,48.52
2023-08-28T00:40:44.173Z,48.36
2023-08-28T00:43:10.679Z,48.42
2023-08-28T00:45:42.822Z,48.21
2023-08-28T00:48:10.673Z,48.44
2023-08-28T00:50:38.305Z,48.18
2023-08-28T00:53:05.298Z,48.39
2023-08-28T00:55:35.517Z,48.54
2023-08-28T00:58:02.946Z,48.24
2023-08-28T01:00:29.445Z,48.15
2023-08-28T01:02:56.294Z,48.27
2023-08-28T01:05:30.485Z,48.18
2023-08-28T01:08:03.946Z,48.19
2023-08-28T01:10:40.056Z,48.26
2023-08-28T01:13:16.810Z,48.25
2023-08-28T01:18:10.978Z,48.39
2023-08-28T01:20:38.009Z,48.51
2023-08-28T01:23:13.049Z,48.61
2023-08-28T01:25:40.543Z,48.47
2023-08-28T01:28:08.658Z,48.63
2023-08-28T01:30:37.481Z,48.56
2023-08-28T01:33:04.452Z,48.76
2023-08-28T01:35:32.252Z,48.72
2023-08-28T01:38:17.421Z,48.69
2023-08-28T01:40:45.361Z,48.53
2023-08-28T01:43:12.969Z,48.66
2023-08-28T01:45:39.903Z,48.71
2023-08-28T01:48:06.998Z,48.76
2023-08-28T01:50:33.866Z,48.79
2023-08-28T01:53:00.566Z,48.64
2023-08-28T01:56:02.562Z,48.85
2023-08-28T01:58:30.544Z,48.84
2023-08-28T02:00:57.045Z,48.58
2023-08-28T02:03:23.588Z,48.62
2023-08-28T02:05:50.078Z,48.94
2023-08-28T02:08:16.567Z,48.86
2023-08-28T02:10:43.029Z,48.74
2023-08-28T02:13:09.499Z,48.80
2023-08-28T02:15:35.957Z,48.56
2023-08-28T02:18:02.492Z,48.69
2023-08-28T02:20:29.096Z,48.69
2023-08-28T02:22:55.614Z,48.81
2023-08-28T02:25:24.266Z,48.88
2023-08-28T02:27:51.002Z,48.75
2023-08-28T02:30:17.813Z,48.87
2023-08-28T02:32:45.311Z,49.00
2023-08-28T02:35:14.968Z,48.81
2023-08-28T02:37:41.625Z,48.80
2023-08-28T02:40:08.409Z,48.94
2023-08-28T02:42:34.848Z,48.91
2023-08-28T02:45:01.381Z,48.67
2023-08-28T02:47:27.900Z,48.72
2023-08-28T02:49:54.341Z,48.94
2023-08-28T02:52:20.785Z,48.75
2023-08-28T02:54:47.261Z,49.05
2023-08-28T02:57:13.710Z,49.02
2023-08-28T02:59:40.198Z,48.72
2023-08-28T03:02:06.930Z,48.74
2023-08-28T03:04:35.364Z,49.07
2023-08-28T03:07:02.004Z,48.94
2023-08-28T03:09:30.411Z,49.16
2023-08-28T03:11:57.256Z,49.02
2023-08-28T03:14:23.747Z,49.25
2023-08-28T03:16:50.236Z,48.93
2023-08-28T03:19:16.665Z,49.20
2023-08-28T03:21:43.221Z,48.94
2023-08-28T03:24:09.662Z,49.13
2023-08-28T03:26:36.215Z,49.11
2023-08-28T03:29:02.669Z,49.18
2023-08-28T03:31:29.351Z,49.33
2023-08-28T03:33:55.905Z,49.04
2023-08-28T03:36:22.412Z,49.15
2023-08-28T03:38:48.958Z,49.24
2023-08-28T03:41:15.448Z,49.17
2023-08-28T03:43:41.945Z,49.19
2023-08-28T03:46:08.456Z,49.28
2023-08-28T03:48:35.027Z,49.07
2023-08-28T03:51:02.041Z,49.19
2023-08-28T03:53:28.492Z,49.20
2023-08-28T03:55:54.954Z,49.29
2023-08-28T03:58:23.214Z,49.29
2023-08-28T04:00:53.214Z,49.29
2023-08-28T04:03:19.744Z,49.16
2023-08-28T04:05:46.798Z,48.97
2023-08-28T04:08:13.400Z,49.30
2023-08-28T04:10:39.869Z,49.10
2023-08-28T04:13:06.531Z,49.11
2023-08-28T04:15:33.207Z,49.17
2023-08-28T04:18:00.926Z,49.02
2023-08-28T04:20:27.552Z,48.88
2023-08-28T04:22:54.025Z,49.04
2023-08-28T04:25:20.811Z,48.86
2023-08-28T04:27:47.324Z,48.90
2023-08-28T04:30:13.905Z,49.04
2023-08-28T04:32:40.546Z,48.95
2023-08-28T04:35:08.178Z,49.20
2023-08-28T04:37:35.251Z,49.07
2023-08-28T04:40:02.026Z,48.89
2023-08-28T04:42:28.476Z,49.05
2023-08-28T04:44:54.911Z,49.15
2023-08-28T04:47:22.560Z,49.01
2023-08-28T04:49:49.460Z,49.07
2023-08-28T04:52:15.972Z,48.92
2023-08-28T04:54:42.448Z,48.74
2023-08-28T04:57:09.006Z,49.14
2023-08-28T04:59:35.464Z,48.75
2023-08-28T05:02:03.112Z,48.88
2023-08-28T05:04:29.620Z,49.06
2023-08-28T05:06:56.099Z,49.01
2023-08-28T05:09:22.559Z,48.94
2023-08-28T05:11:49.054Z,49.25
2023-08-28T05:14:15.510Z,49.09
2023-08-28T05:16:42.086Z,48.93
2023-08-28T05:19:08.565Z,49.13
2023-08-28T05:21:35.046Z,49.13
2023-08-28T05:24:01.534Z,48.95
2023-08-28T05:26:27.955Z,48.96
2023-08-28T05:28:54.472Z,48.91
2023-08-28T05:31:20.936Z,49.04
2023-08-28T05:33:47.485Z,49.25
2023-08-28T05:36:14.300Z,49.16
2023-08-28T05:38:40.766Z,49.25
2023-08-28T05:41:07.200Z,48.96
2023-08-28T05:43:33.661Z,49.26
2023-08-28T05:46:00.161Z,49.39
2023-08-28T05:48:26.597Z,49.18
2023-08-28T05:50:53.053Z,49.37
2023-08-28T05:53:19.548Z,49.33
2023-08-28T05:55:46.261Z,49.01
2023-08-28T05:58:12.765Z,49.04
2023-08-28T06:00:39.307Z,49.14
2023-08-28T06:03:05.981Z,48.91
2023-08-28T06:05:32.852Z,49.21
2023-08-28T06:07:59.392Z,49.14
2023-08-28T06:10:25.868Z,49.08
2023-08-28T06:12:52.408Z,48.78
2023-08-28T06:15:19.879Z,48.80
2023-08-28T06:17:46.939Z,48.53
2023-08-28T06:20:13.510Z,48.60
2023-08-28T06:22:41.894Z,48.51
2023-08-28T06:25:09.351Z,48.39
2023-08-28T06:27:35.954Z,48.46
2023-08-28T06:30:05.235Z,48.60
2023-08-28T06:32:31.782Z,48.45
2023-08-28T06:34:58.412Z,48.65
2023-08-28T06:37:26.043Z,48.67
2023-08-28T06:39:55.936Z,48.38
2023-08-28T06:42:23.575Z,48.70
2023-08-28T06:44:51.444Z,48.57
2023-08-28T06:47:18.168Z,48.50
2023-08-28T06:49:44.780Z,48.54
2023-08-28T06:52:11.440Z,48.51
2023-08-28T06:54:50.986Z,48.61
2023-08-28T06:57:18.312Z,48.65
2023-08-28T06:59:45.017Z,48.46
2023-08-28T07:02:11.581Z,48.38
2023-08-28T13:47:01.850Z,46.23
2023-08-28T14:24:08.822Z,46.18
2023-08-28T14:36:45.051Z,46.33
2023-08-28T14:59:20.289Z,44.84
2023-08-28T15:08:44.563Z,44.51
2023-08-28T15:15:00.094Z,44.47
2023-08-28T15:24:17.429Z,44.29
2023-08-28T15:27:18.748Z,44.39
2023-08-28T15:36:15.662Z,44.54
2023-08-28T15:39:14.591Z,44.76
2023-08-28T15:41:59.323Z,44.62
2023-08-28T15:45:17.456Z,44.59
2023-08-28T15:50:54.454Z,44.64
2023-08-28T16:15:06.836Z,44.91
2023-08-28T16:18:27.451Z,45.32
2023-08-28T16:20:55.915Z,45.30
2023-08-28T16:35:18.220Z,45.39
2023-08-28T16:42:23.885Z,45.32
2023-08-28T17:22:35.727Z,45.79
2023-08-28T17:25:35.870Z,45.05
2023-08-28T19:00:48.500Z,46.61
2023-08-28T19:59:25.454Z,47.15
2023-08-28T20:02:03.624Z,47.14
2023-08-28T20:05:02.753Z,47.20
2023-08-28T20:07:40.015Z,47.25
2023-08-28T20:14:42.451Z,47.44
2023-08-28T21:09:20.743Z,48.23
2023-08-28T21:12:07.967Z,48.26
2023-08-28T21:18:28.083Z,48.35
2023-08-28T21:21:50.207Z,48.44
2023-08-28T21:30:21.288Z,48.46
2023-08-28T21:36:03.422Z,48.57
2023-08-28T21:41:56.614Z,48.76
2023-08-28T21:57:25.660Z,48.60
2023-08-28T22:46:01.094Z,49.06
2023-08-28T23:19:51.629Z,49.21
2023-08-28T23:31:06.554Z,49.25
2023-08-28T23:37:07.664Z,49.48
2023-08-28T23:40:15.254Z,49.40
2023-08-28T23:42:58.591Z,49.58
2023-08-28T23:49:00.522Z,49.97
